Time;durP1;ratioP1;P1;durP2;ratioP2;P2;SDS_P1;SDS_P2;PMS_P1;PMS_P2;Temp;Humidity;BMP_temperature;BMP_pressure;BME280_temperature;BME280_humidity;BME280_pressure;Samples;Min_cycle;Max_cycle;Signal;HPM_P1;HPM_P2
2022/09/06 00:00:16;;;;;;;10.32;5.22;;;;;;;16.97;100.00;101493.50;5289219;28;20488;-74
2022/09/06 00:02:47;;;;;;;7.53;5.28;;;;;;;16.96;100.00;101499.09;5289688;28;20033;-74
2022/09/06 00:05:18;;;;;;;8.23;5.13;;;;;;;16.94;100.00;101493.06;5288986;28;20099;-75
2022/09/06 00:07:48;;;;;;;11.25;5.10;;;;;;;16.96;100.00;101496.41;5289392;28;20073;-75
2022/09/06 00:10:19;;;;;;;10.02;5.78;;;;;;;16.95;100.00;101511.81;5289952;28;20110;-75
2022/09/06 00:12:49;;;;;;;9.90;5.43;;;;;;;16.97;100.00;101517.06;5278371;28;20032;-75
2022/09/06 00:15:21;;;;;;;9.55;5.20;;;;;;;16.99;100.00;101515.00;5285370;28;20028;-75
2022/09/06 00:17:51;;;;;;;10.30;5.93;;;;;;;17.00;100.00;101513.97;5277323;28;20068;-74
2022/09/06 00:20:25;;;;;;;9.52;5.05;;;;;;;17.00;100.00;101500.41;5287014;28;20400;-75
2022/09/06 00:23:14;;;;;;;12.60;6.35;;;;;;;17.00;100.00;101505.81;5288856;28;20032;-74
2022/09/06 00:25:45;;;;;;;12.05;5.63;;;;;;;17.00;100.00;101503.13;5288609;28;20019;-74
2022/09/06 00:28:15;;;;;;;12.95;5.55;;;;;;;16.99;100.00;101505.00;5290061;28;20575;-74
2022/09/06 00:30:46;;;;;;;9.30;5.80;;;;;;;17.00;100.00;101508.53;5288313;28;20366;-75
2022/09/06 00:33:16;;;;;;;9.88;5.72;;;;;;;17.00;100.00;101506.66;5288858;28;20024;-76
2022/09/06 00:35:48;;;;;;;10.48;5.70;;;;;;;17.00;100.00;101501.25;5288206;28;20027;-76
2022/09/06 00:38:18;;;;;;;7.22;5.60;;;;;;;17.01;100.00;101492.06;5288631;28;20488;-76
2022/09/06 00:40:48;;;;;;;8.57;5.40;;;;;;;17.04;100.00;101504.41;5288560;28;20055;-76
2022/09/06 00:43:19;;;;;;;8.13;5.30;;;;;;;17.06;100.00;101499.63;5270540;28;20027;-75
2022/09/06 00:45:51;;;;;;;10.30;5.53;;;;;;;17.07;100.00;101493.19;5287565;28;20031;-75
2022/09/06 00:48:22;;;;;;;9.23;6.05;;;;;;;17.06;100.00;101491.50;5278004;28;20053;-75
2022/09/06 00:50:59;;;;;;;9.68;6.40;;;;;;;17.06;100.00;101491.50;5285505;28;20035;-74
2022/09/06 00:53:30;;;;;;;10.50;5.53;;;;;;;17.05;100.00;101485.25;5288617;28;20028;-74
2022/09/06 00:56:01;;;;;;;12.52;6.05;;;;;;;17.05;100.00;101487.94;5288439;28;20031;-75
2022/09/06 00:58:32;;;;;;;10.38;6.03;;;;;;;17.02;100.00;101476.69;5288195;28;20034;-75
2022/09/06 01:01:04;;;;;;;10.88;6.45;;;;;;;17.00;100.00;101476.84;5270250;28;20019;-74
2022/09/06 01:03:36;;;;;;;11.32;6.22;;;;;;;16.99;100.00;101475.19;5288007;28;20027;-76
2022/09/06 01:06:17;;;;;;;7.15;5.15;;;;;;;16.95;100.00;101463.03;5281023;28;20028;-76
2022/09/06 01:08:48;;;;;;;15.25;6.07;;;;;;;16.93;100.00;101465.13;5284586;28;20080;-76
2022/09/06 01:11:54;;;;;;;9.32;5.32;;;;;;;16.92;100.00;101463.44;5288066;28;20081;-75
2022/09/06 01:14:39;;;;;;;10.37;5.63;;;;;;;16.91;100.00;101460.91;5276682;28;20031;-74
2022/09/06 01:17:45;;;;;;;8.70;5.50;;;;;;;16.86;100.00;101452.50;5287593;28;20325;-76
2022/09/06 01:20:37;;;;;;;9.48;6.50;;;;;;;16.79;100.00;101464.13;5287694;28;20027;-76
2022/09/06 01:23:45;;;;;;;9.63;5.55;;;;;;;16.72;100.00;101467.81;5274095;28;20031;-75
2022/09/06 01:26:56;;;;;;;8.82;5.70;;;;;;;16.62;100.00;101473.50;5287241;28;20035;-76
2022/09/06 01:29:35;;;;;;;9.50;6.38;;;;;;;16.49;100.00;101476.03;5287492;28;20035;-75
2022/09/06 01:32:47;;;;;;;10.52;5.93;;;;;;;16.39;100.00;101472.78;5287520;28;20020;-74
2022/09/06 01:35:37;;;;;;;10.15;6.82;;;;;;;16.33;100.00;101471.69;5287193;28;20100;-74
2022/09/06 01:38:08;;;;;;;13.00;7.43;;;;;;;16.29;100.00;101473.91;5287578;28;20019;-75
2022/09/06 01:40:38;;;;;;;9.82;6.40;;;;;;;16.24;100.00;101473.66;5287712;28;20035;-76
2022/09/06 01:43:11;;;;;;;12.30;7.35;;;;;;;16.15;100.00;101474.78;5287426;28;20057;-75
2022/09/06 01:45:59;;;;;;;10.38;7.35;;;;;;;16.09;100.00;101480.09;5286635;28;20034;-74
2022/09/06 01:48:48;;;;;;;12.70;6.88;;;;;;;16.02;100.00;101478.16;5286797;28;20024;-75
2022/09/06 01:51:40;;;;;;;13.05;6.95;;;;;;;15.98;100.00;101487.66;5287216;28;20114;-76
2022/09/06 01:54:50;;;;;;;13.55;7.57;;;;;;;15.96;100.00;101489.69;5286548;28;20019;-74
2022/09/06 01:57:58;;;;;;;11.27;7.97;;;;;;;15.93;100.00;101487.38;5287157;28;20492;-76
2022/09/06 02:00:41;;;;;;;16.70;8.25;;;;;;;15.91;100.00;101481.28;5286782;28;20148;-75
2022/09/06 02:03:28;;;;;;;14.70;8.02;;;;;;;15.94;100.00;101490.91;5286833;28;20054;-74
2022/09/06 02:06:07;;;;;;;12.57;8.52;;;;;;;15.92;100.00;101487.56;5286166;28;20031;-74
2022/09/06 02:08:43;;;;;;;12.57;8.45;;;;;;;15.91;100.00;101492.13;5286745;28;20384;-75
2022/09/06 02:11:15;;;;;;;13.98;8.90;;;;;;;15.91;100.00;101483.16;5287180;28;20020;-74
2022/09/06 02:14:06;;;;;;;11.68;8.05;;;;;;;15.90;100.00;101484.19;5285800;28;20028;-75
2022/09/06 02:16:40;;;;;;;18.50;9.02;;;;;;;15.90;100.00;101486.91;5286915;28;20019;-74
2022/09/06 02:19:18;;;;;;;15.27;7.25;;;;;;;15.90;100.00;101481.50;5286840;28;20023;-76
2022/09/06 02:21:51;;;;;;;16.00;9.88;;;;;;;15.89;100.00;101488.78;5286624;28;20027;-76
2022/09/06 02:24:29;;;;;;;12.93;7.68;;;;;;;15.83;100.00;101489.53;5286369;28;20424;-75
2022/09/06 02:26:59;;;;;;;14.00;7.93;;;;;;;15.76;100.00;101486.72;5286583;28;20026;-76
2022/09/06 02:29:30;;;;;;;13.48;7.75;;;;;;;15.74;100.00;101496.88;5284504;28;20024;-76
2022/09/06 02:32:07;;;;;;;14.68;8.15;;;;;;;15.71;100.00;101496.38;5274106;28;20020;-75
2022/09/06 02:34:38;;;;;;;14.13;8.00;;;;;;;15.69;100.00;101483.06;5285753;28;20392;-77
2022/09/06 02:37:11;;;;;;;12.85;8.00;;;;;;;15.68;100.00;101489.50;5286763;28;20090;-74
2022/09/06 02:39:41;;;;;;;11.35;8.32;;;;;;;15.68;100.00;101502.19;5286089;28;20027;-74
2022/09/06 02:42:14;;;;;;;12.70;8.10;;;;;;;15.66;100.00;101501.50;5286665;28;20602;-75
2022/09/06 02:44:44;;;;;;;13.60;9.07;;;;;;;15.64;100.00;101496.28;5285150;28;20393;-74
2022/09/06 02:47:15;;;;;;;14.35;8.88;;;;;;;15.61;100.00;101491.22;5286229;28;20197;-74
2022/09/06 02:49:46;;;;;;;15.30;8.75;;;;;;;15.58;100.00;101497.00;5286537;28;20024;-76
2022/09/06 02:52:16;;;;;;;12.63;8.57;;;;;;;15.54;100.00;101506.50;5286229;28;20027;-78
2022/09/06 02:54:46;;;;;;;12.63;8.52;;;;;;;15.47;100.00;101501.00;5285678;28;20028;-75
2022/09/06 02:57:17;;;;;;;11.93;8.30;;;;;;;15.41;100.00;101496.31;5267192;28;20019;-75
2022/09/06 02:59:48;;;;;;;16.30;9.70;;;;;;;15.38;100.00;101495.84;5285900;28;20023;-75
2022/09/06 03:02:18;;;;;;;15.05;8.80;;;;;;;15.33;100.00;101495.53;5286073;28;20418;-76
2022/09/06 03:04:48;;;;;;;13.95;8.30;;;;;;;15.32;100.00;101491.16;5285521;28;20422;-76
2022/09/06 03:07:19;;;;;;;13.50;8.85;;;;;;;15.31;100.00;101494.88;5285854;28;20023;-75
2022/09/06 03:09:50;;;;;;;15.27;9.38;;;;;;;15.30;100.00;101494.03;5267446;28;20538;-76
2022/09/06 03:12:20;;;;;;;13.35;8.80;;;;;;;15.27;100.00;101495.25;5286281;28;20110;-76
2022/09/06 03:14:51;;;;;;;16.60;9.48;;;;;;;15.20;100.00;101499.69;5285962;28;20536;-75
2022/09/06 03:17:21;;;;;;;13.98;8.32;;;;;;;15.15;100.00;101498.53;5286195;28;20035;-74
2022/09/06 03:19:52;;;;;;;12.68;7.80;;;;;;;15.13;100.00;101493.31;5283240;28;20270;-75
2022/09/06 03:22:22;;;;;;;12.38;7.82;;;;;;;15.06;100.00;101489.66;5273858;28;20063;-74
2022/09/06 03:24:53;;;;;;;19.85;9.90;;;;;;;15.01;100.00;101500.19;5284195;28;20020;-75
2022/09/06 03:27:23;;;;;;;28.67;10.50;;;;;;;14.93;100.00;101495.66;5286369;28;20031;-74
2022/09/06 03:29:54;;;;;;;13.52;7.43;;;;;;;14.88;100.00;101505.31;5282769;28;20035;-75
2022/09/06 03:32:24;;;;;;;13.13;8.10;;;;;;;14.85;100.00;101505.66;5273682;28;20066;-75
2022/09/06 03:34:55;;;;;;;8.38;6.28;;;;;;;14.84;100.00;101498.59;5283163;28;20040;-74
2022/09/06 03:37:25;;;;;;;11.63;6.15;;;;;;;14.80;100.00;101498.09;5285896;28;20114;-76
2022/09/06 03:39:56;;;;;;;6.68;5.38;;;;;;;14.73;100.00;101510.63;5285961;28;20488;-74
2022/09/06 03:42:26;;;;;;;15.77;7.75;;;;;;;14.70;100.00;101501.03;5285765;28;20058;-74
2022/09/06 03:44:57;;;;;;;15.38;7.60;;;;;;;14.69;100.00;101491.25;5266785;28;20081;-74
2022/09/06 03:47:27;;;;;;;12.02;7.93;;;;;;;14.71;100.00;101488.38;5282786;28;20020;-74
2022/09/06 03:49:58;;;;;;;15.07;9.82;;;;;;;14.73;100.00;101495.28;5264580;28;20031;-73
2022/09/06 03:52:28;;;;;;;12.15;9.15;;;;;;;14.73;100.00;101497.13;5281885;28;20023;-74
2022/09/06 03:54:59;;;;;;;12.52;9.02;;;;;;;14.69;100.00;101490.41;5273437;28;20080;-74
2022/09/06 03:57:29;;;;;;;15.70;10.88;;;;;;;14.67;100.00;101487.06;5251688;28;20062;-76
2022/09/06 04:00:00;;;;;;;12.95;9.32;;;;;;;14.68;100.00;101483.31;5284835;28;20037;-74
2022/09/06 04:02:30;;;;;;;17.23;8.20;;;;;;;14.64;100.00;101490.09;5285270;28;20072;-74
2022/09/06 04:05:01;;;;;;;15.05;8.77;;;;;;;14.61;100.00;101488.59;5284686;28;20404;-74
2022/09/06 04:07:31;;;;;;;16.92;9.50;;;;;;;14.61;100.00;101487.72;5285321;28;20027;-74
2022/09/06 04:10:02;;;;;;;13.98;9.65;;;;;;;14.58;100.00;101478.16;5285020;28;20031;-73
2022/09/06 04:12:33;;;;;;;11.23;7.82;;;;;;;14.56;100.00;101474.78;5285531;28;20028;-73
2022/09/06 04:15:04;;;;;;;15.55;8.50;;;;;;;14.55;100.00;101478.50;5284885;28;20389;-75
2022/09/06 04:17:35;;;;;;;10.18;7.53;;;;;;;14.53;100.00;101480.53;5285157;28;20024;-74
2022/09/06 04:20:06;;;;;;;16.63;9.05;;;;;;;14.49;100.00;101479.19;5285297;28;20012;-74
2022/09/06 04:22:36;;;;;;;12.43;8.57;;;;;;;14.47;100.00;101478.53;5272741;28;20485;-75
2022/09/06 04:25:07;;;;;;;11.00;7.97;;;;;;;14.42;100.00;101476.34;5283024;28;20513;-74
2022/09/06 04:27:37;;;;;;;13.18;8.35;;;;;;;14.37;100.00;101477.91;5285631;28;20028;-74
2022/09/06 04:30:08;;;;;;;20.13;8.85;;;;;;;14.34;100.00;101476.38;5284490;28;20064;-74
2022/09/06 04:32:39;;;;;;;12.73;6.53;;;;;;;14.32;100.00;101472.19;5285101;28;20031;-74
2022/09/06 04:35:09;;;;;;;194.63;15.32;;;;;;;14.27;100.00;101477.25;5284188;28;20019;-74
2022/09/06 04:37:40;;;;;;;122.10;10.32;;;;;;;14.24;100.00;101464.94;5288910;28;20091;-73
2022/09/06 04:40:10;;;;;;;90.18;8.25;;;;;;;14.20;100.00;101472.53;5288809;28;20161;-74
2022/09/06 04:42:41;;;;;;;7.95;4.10;;;;;;;14.15;100.00;101474.09;5275181;28;20027;-73
2022/09/06 04:45:11;;;;;;;7.40;5.10;;;;;;;14.06;100.00;101473.28;5288108;28;20078;-75
2022/09/06 04:47:42;;;;;;;10.18;5.97;;;;;;;14.06;100.00;101476.00;5274579;28;20035;-74
2022/09/06 04:50:12;;;;;;;12.48;7.30;;;;;;;14.06;100.00;101469.75;5288735;28;20071;-74
2022/09/06 04:52:43;;;;;;;7.50;5.82;;;;;;;14.06;100.00;101472.47;5283679;28;20111;-74
2022/09/06 04:55:13;;;;;;;18.83;8.48;;;;;;;14.06;100.00;101480.56;5279529;28;20508;-74
2022/09/06 04:57:44;;;;;;;12.52;8.13;;;;;;;14.07;100.00;101471.44;5288223;28;20055;-74
2022/09/06 05:00:14;;;;;;;13.40;8.40;;;;;;;14.08;100.00;101475.81;5287742;28;20082;-74
2022/09/06 05:02:45;;;;;;;9.63;6.53;;;;;;;14.12;100.00;101479.84;5281511;28;20108;-75
2022/09/06 05:05:15;;;;;;;10.55;7.75;;;;;;;14.12;100.00;101486.09;5281450;28;20026;-76
2022/09/06 05:07:46;;;;;;;14.68;7.93;;;;;;;14.12;100.00;101482.53;5288280;28;20031;-74
2022/09/06 05:10:16;;;;;;;11.48;7.30;;;;;;;14.11;100.00;101492.50;5274291;28;20084;-73
2022/09/06 05:12:49;;;;;;;11.32;7.70;;;;;;;14.09;100.00;101488.28;5270064;28;20405;-73
2022/09/06 05:15:21;;;;;;;693.08;37.13;;;;;;;14.08;100.00;101484.75;5284185;28;20111;-73
2022/09/06 05:17:51;;;;;;;8.60;6.68;;;;;;;14.02;100.00;101490.84;5278702;28;20026;-74
2022/09/06 05:20:22;;;;;;;12.57;7.95;;;;;;;13.99;100.00;101494.72;5287731;28;20031;-75
2022/09/06 05:22:53;;;;;;;166.70;8.00;;;;;;;14.01;100.00;101491.84;5288161;28;20035;-73
2022/09/06 05:25:24;;;;;;;9.65;4.88;;;;;;;13.97;100.00;101487.81;5286969;28;20034;-74
2022/09/06 05:27:54;;;;;;;7.53;2.30;;;;;;;13.95;100.00;101487.13;5287420;28;20027;-74
2022/09/06 05:30:25;;;;;;;4.57;3.00;;;;;;;13.95;100.00;101485.28;5287698;28;20031;-75
2022/09/06 05:32:55;;;;;;;5.95;4.72;;;;;;;13.98;100.00;101492.19;5273893;28;20043;-75
2022/09/06 05:35:26;;;;;;;4.07;3.20;;;;;;;14.02;100.00;101488.13;5287471;28;20469;-75
2022/09/06 05:37:56;;;;;;;9.25;5.82;;;;;;;14.08;100.00;101484.75;5287547;28;20504;-73
2022/09/06 05:40:27;;;;;;;15.43;8.40;;;;;;;14.17;100.00;101486.41;5288098;28;20028;-73
2022/09/06 05:42:57;;;;;;;5.93;4.20;;;;;;;14.22;100.00;101486.72;5287985;28;20059;-73
2022/09/06 05:45:27;;;;;;;13.23;6.72;;;;;;;14.24;100.00;101478.44;5274222;28;20020;-73
2022/09/06 05:47:58;;;;;;;24.92;12.93;;;;;;;14.30;100.00;101485.00;5286002;28;20032;-74
2022/09/06 05:50:28;;;;;;;14.85;9.35;;;;;;;14.38;100.00;101475.00;5287343;28;20055;-73
2022/09/06 05:52:59;;;;;;;23.58;12.48;;;;;;;14.49;100.00;101474.63;5287558;28;20019;-73
2022/09/06 05:55:29;;;;;;;28.92;15.55;;;;;;;14.64;100.00;101477.44;5286687;28;20027;-73
2022/09/06 05:58:00;;;;;;;141.35;14.43;;;;;;;14.81;100.00;101480.03;5278051;28;20388;-73
2022/09/06 06:00:30;;;;;;;21.83;12.43;;;;;;;15.32;100.00;101477.66;5268350;28;20040;-73
2022/09/06 06:03:01;;;;;;;36.35;17.63;;;;;;;16.02;100.00;101471.91;5287536;28;20093;-73
2022/09/06 06:05:31;;;;;;;25.88;13.70;;;;;;;16.79;100.00;101474.13;5286577;28;20020;-73
2022/09/06 06:08:01;;;;;;;20.77;12.07;;;;;;;17.47;100.00;101472.72;5287118;28;20030;-73
2022/09/06 06:10:32;;;;;;;13.77;10.15;;;;;;;18.19;100.00;101478.84;5286780;28;20072;-73
2022/09/06 06:13:02;;;;;;;15.35;9.55;;;;;;;18.37;100.00;101469.13;5275199;28;20032;-73
2022/09/06 06:15:33;;;;;;;14.88;8.70;;;;;;;18.76;100.00;101467.59;5278987;28;20024;-73
2022/09/06 06:18:03;;;;;;;16.67;8.85;;;;;;;19.24;100.00;101475.63;5265883;28;20107;-73
2022/09/06 06:20:34;;;;;;;16.25;8.00;;;;;;;19.86;100.00;101466.19;5268280;28;20043;-73
2022/09/06 06:23:04;;;;;;;9.40;7.28;;;;;;;20.41;100.00;101461.19;5286880;28;20503;-73
2022/09/06 06:25:35;;;;;;;16.75;8.35;;;;;;;20.81;100.00;101457.44;5285786;28;20026;-73
2022/09/06 06:28:05;;;;;;;16.23;8.55;;;;;;;21.18;100.00;101456.53;5276016;28;20095;-73
2022/09/06 06:30:35;;;;;;;17.38;7.20;;;;;;;21.48;100.00;101464.09;5286671;28;20469;-71
2022/09/06 06:33:06;;;;;;;9.73;7.18;;;;;;;21.72;100.00;101454.22;5287796;28;20516;-71
2022/09/06 06:35:36;;;;;;;13.63;7.13;;;;;;;21.87;100.00;101453.88;5278719;28;20040;-71
2022/09/06 06:38:07;;;;;;;10.75;6.60;;;;;;;22.13;100.00;101455.50;5279971;28;20119;-72
2022/09/06 06:40:37;;;;;;;16.38;6.38;;;;;;;22.42;100.00;101460.19;5284779;28;20126;-72
2022/09/06 06:43:09;;;;;;;10.50;5.53;;;;;;;22.71;100.00;101454.97;5284340;28;20051;-72
2022/09/06 06:45:40;;;;;;;15.40;5.82;;;;;;;22.74;100.00;101462.69;5269712;28;20050;-72
2022/09/06 06:48:11;;;;;;;8.00;5.60;;;;;;;22.69;100.00;101457.09;5283920;28;20062;-72
2022/09/06 06:50:41;;;;;;;9.90;5.32;;;;;;;22.65;100.00;101466.84;5283633;28;20532;-72
2022/09/06 06:53:12;;;;;;;7.88;5.10;;;;;;;22.80;100.00;101463.69;5284331;28;20115;-72
2022/09/06 06:55:58;;;;;;;10.95;4.88;;;;;;;23.34;100.00;101454.44;5283296;28;20118;-72
2022/09/06 06:58:29;;;;;;;9.93;5.00;;;;;;;23.23;100.00;101458.00;5282891;28;20016;-72
2022/09/06 07:01:00;;;;;;;6.47;4.38;;;;;;;23.64;100.00;101459.00;5284054;28;20015;-72
2022/09/06 07:03:31;;;;;;;7.55;4.53;;;;;;;23.98;100.00;101471.84;5283883;28;20027;-72
2022/09/06 07:06:03;;;;;;;10.07;4.53;;;;;;;23.76;100.00;101460.69;5283111;28;20401;-72
2022/09/06 07:08:35;;;;;;;7.07;4.15;;;;;;;23.77;100.00;101464.25;5283281;28;20031;-73
2022/09/06 07:11:09;;;;;;;7.75;4.03;;;;;;;24.06;100.00;101446.00;5284108;28;20050;-72
2022/09/06 07:13:40;;;;;;;9.98;3.42;;;;;;;24.18;100.00;101446.78;5283165;28;20079;-72
2022/09/06 07:16:14;;;;;;;5.57;3.45;;;;;;;24.38;100.00;101445.56;5283544;28;20023;-72
2022/09/06 07:18:46;;;;;;;8.70;3.75;;;;;;;24.28;100.00;101448.91;5283341;28;20023;-72
2022/09/06 07:21:19;;;;;;;6.68;3.22;;;;;;;24.53;100.00;101476.03;5283322;28;20023;-72
2022/09/06 07:23:49;;;;;;;7.50;3.97;;;;;;;24.41;100.00;101473.34;5283218;28;20050;-72
2022/09/06 07:26:22;;;;;;;6.97;3.80;;;;;;;24.44;100.00;101483.00;5282482;28;20358;-72
2022/09/06 07:28:55;;;;;;;12.07;3.67;;;;;;;24.58;100.00;101480.81;5282841;28;20096;-72
2022/09/06 07:31:27;;;;;;;6.53;3.28;;;;;;;24.90;100.00;101492.09;5278853;28;20025;-72
2022/09/06 07:33:58;;;;;;;6.43;3.67;;;;;;;24.83;100.00;101481.28;5273913;28;20045;-72
2022/09/06 07:36:28;;;;;;;9.60;3.25;;;;;;;24.69;100.00;101477.19;5281975;28;20015;-72
2022/09/06 07:38:59;;;;;;;8.25;3.20;;;;;;;24.56;100.00;101481.06;5264971;28;20020;-72
2022/09/06 07:41:29;;;;;;;5.10;3.17;;;;;;;24.59;100.00;101482.47;5264926;28;20508;-72
2022/09/06 07:44:00;;;;;;;5.65;3.33;;;;;;;24.48;100.00;101487.75;5283394;28;20549;-72
2022/09/06 07:46:30;;;;;;;7.35;3.53;;;;;;;24.44;100.00;101481.06;5282746;28;20024;-72
2022/09/06 07:49:03;;;;;;;5.70;3.30;;;;;;;24.74;100.00;101478.09;5282505;28;20035;-72
2022/09/06 07:51:33;;;;;;;6.03;2.75;;;;;;;24.84;100.00;101480.22;5273011;28;20032;-72
2022/09/06 07:54:05;;;;;;;5.57;2.53;;;;;;;24.88;100.00;101477.81;5279824;28;20526;-72
2022/09/06 07:56:36;;;;;;;3.67;2.33;;;;;;;25.04;100.00;101468.78;5282495;28;20507;-72
2022/09/06 07:59:06;;;;;;;4.55;2.00;;;;;;;25.10;100.00;101483.44;5282925;28;20017;-72
2022/09/06 08:01:38;;;;;;;4.05;2.20;;;;;;;24.96;100.00;101478.25;5283126;28;20161;-72
2022/09/06 08:04:12;;;;;;;5.13;2.47;;;;;;;24.71;100.00;101467.63;5282973;28;20411;-72
2022/09/06 08:06:46;;;;;;;7.07;2.42;;;;;;;24.97;100.00;101468.94;5282993;28;20540;-72
2022/09/06 08:09:17;;;;;;;;;;;;;;;25.29;100.00;101462.91;5282889;28;20081;-72
2022/09/06 08:11:49;;;;;;;5.88;2.30;;;;;;;25.28;100.00;101475.00;5285091;28;20411;-71
2022/09/06 08:14:20;;;;;;;8.38;2.25;;;;;;;25.63;100.00;101469.22;5286923;28;20030;-72
2022/09/06 08:16:50;;;;;;;3.10;2.20;;;;;;;25.53;100.00;101467.16;5287394;28;20031;-72
2022/09/06 08:19:21;;;;;;;9.35;2.28;;;;;;;25.56;100.00;101468.59;5287010;28;20023;-72
2022/09/06 08:22:07;;;;;;;4.90;2.45;;;;;;;25.26;100.00;101463.44;5286719;28;20153;-72
2022/09/06 08:24:37;;;;;;;5.38;2.47;;;;;;;25.11;100.00;101463.19;5286038;28;20076;-72
2022/09/06 08:27:08;;;;;;;4.43;2.20;;;;;;;25.21;100.00;101471.59;5277130;28;20024;-72
2022/09/06 08:29:38;;;;;;;5.22;2.22;;;;;;;25.14;100.00;101470.91;5284789;28;20106;-72
2022/09/06 08:32:09;;;;;;;4.43;2.28;;;;;;;25.28;100.00;101470.31;5276346;28;20023;-72
2022/09/06 08:34:40;;;;;;;8.07;2.70;;;;;;;25.63;100.00;101474.72;5285656;28;20084;-72
2022/09/06 08:37:10;;;;;;;4.82;2.47;;;;;;;26.28;100.00;101479.53;5286885;28;20027;-72
2022/09/06 08:39:41;;;;;;;6.57;2.20;;;;;;;26.06;100.00;101479.53;5263191;28;20015;-72
2022/09/06 08:42:12;;;;;;;6.10;2.70;;;;;;;26.17;100.00;101474.97;5278494;28;20050;-72
2022/09/06 08:44:47;;;;;;;5.15;2.50;;;;;;;26.18;100.00;101467.56;5286181;28;20023;-71
2022/09/06 08:47:19;;;;;;;8.43;2.45;;;;;;;26.35;100.00;101468.31;5286148;28;20027;-71
2022/09/06 08:49:53;;;;;;;6.35;2.67;;;;;;;26.59;100.00;101472.50;5286067;28;20020;-72
2022/09/06 08:52:40;;;;;;;3.90;2.40;;;;;;;26.50;100.00;101467.69;5272821;28;20032;-72
2022/09/06 08:55:32;;;;;;;4.43;2.15;;;;;;;26.58;100.00;101461.75;5285670;28;20034;-72
2022/09/06 08:58:28;;;;;;;4.53;2.70;;;;;;;27.10;100.00;101464.78;5286428;28;20095;-72
2022/09/06 09:01:01;;;;;;;;;;;;;;;27.17;100.00;101470.09;5287217;28;20469;-72
2022/09/06 09:03:35;;;;;;;5.82;2.28;;;;;;;27.46;100.00;101469.75;5272157;28;19908;-72
2022/09/06 09:06:08;;;;;;;6.32;2.60;;;;;;;27.39;100.00;101475.50;5254739;28;20024;-72
2022/09/06 09:09:00;;;;;;;6.25;2.70;;;;;;;27.25;100.00;101468.75;5285790;28;20034;-72
2022/09/06 09:11:34;;;;;;;3.50;2.08;;;;;;;27.52;100.00;101465.97;5286435;28;20023;-72
2022/09/06 09:14:26;;;;;;;8.48;2.53;;;;;;;27.65;100.00;101475.69;5286161;28;20254;-72
2022/09/06 09:17:04;;;;;;;5.70;2.50;;;;;;;27.92;100.00;101473.69;5285663;28;20015;-72
2022/09/06 09:19:36;;;;;;;8.20;3.38;;;;;;;28.00;100.00;101480.59;5285347;28;20436;-72
2022/09/06 09:22:07;;;;;;;8.98;3.30;;;;;;;27.99;100.00;101484.47;5267331;28;20114;-72
2022/09/06 09:24:38;;;;;;;7.18;2.85;;;;;;;27.41;100.00;101481.59;5284321;28;20023;-72
2022/09/06 09:27:11;;;;;;;6.53;3.38;;;;;;;27.32;100.00;101481.22;5272740;28;20031;-72
2022/09/06 09:29:52;;;;;;;6.93;3.28;;;;;;;27.50;100.00;101471.72;5285006;28;20451;-72
2022/09/06 09:32:48;;;;;;;8.73;3.35;;;;;;;27.50;100.00;101473.63;5285539;28;20034;-72
2022/09/06 09:35:30;;;;;;;6.60;2.75;;;;;;;28.25;100.00;101464.19;5276098;28;20035;-72
2022/09/06 09:38:06;;;;;;;10.75;3.35;;;;;;;28.64;100.00;101453.59;5285801;28;20027;-72
2022/09/06 09:40:41;;;;;;;11.02;3.53;;;;;;;28.50;100.00;101459.88;5285215;28;20015;-72
2022/09/06 09:43:18;;;;;;;6.90;3.50;;;;;;;28.67;100.00;101454.13;5285610;28;20107;-72
2022/09/06 09:46:07;;;;;;;6.43;3.70;;;;;;;28.49;100.00;101464.59;5284496;28;20019;-72
2022/09/06 09:48:40;;;;;;;8.45;3.70;;;;;;;28.55;100.00;101469.00;5285818;28;20421;-72
2022/09/06 09:51:28;;;;;;;8.10;3.67;;;;;;;28.66;100.00;101480.91;5285130;28;20024;-73
2022/09/06 09:54:00;;;;;;;10.68;4.60;;;;;;;29.03;100.00;101482.69;5284659;28;20445;-72
2022/09/06 09:56:51;;;;;;;6.10;3.65;;;;;;;28.62;100.00;101475.13;5284721;28;20019;-73
2022/09/06 09:59:22;;;;;;;10.45;4.25;;;;;;;28.83;100.00;101480.69;5270562;28;20063;-73
2022/09/06 10:01:56;;;;;;;11.95;4.53;;;;;;;28.60;100.00;101476.47;5285147;28;20045;-73
2022/09/06 10:04:31;;;;;;;14.75;4.63;;;;;;;28.77;99.98;101476.25;5275484;28;20474;-73
2022/09/06 10:07:20;;;;;;;;;;;;;;;28.64;98.12;101474.84;5267940;28;20114;-73
2022/09/06 10:10:06;;;;;;;9.63;4.00;;;;;;;28.37;100.00;101492.41;5284725;28;19918;-73
2022/09/06 10:12:39;;;;;;;10.40;4.40;;;;;;;28.25;100.00;101488.19;5254768;28;20262;-73
2022/09/06 10:15:30;;;;;;;13.80;3.83;;;;;;;28.13;100.00;101483.72;5284362;28;20030;-74
2022/09/06 10:18:00;;;;;;;10.45;4.30;;;;;;;27.95;100.00;101477.81;5268505;28;20452;-73
2022/09/06 10:20:41;;;;;;;10.05;4.07;;;;;;;27.95;100.00;101481.41;5284710;28;20058;-73
2022/09/06 10:23:20;;;;;;;7.70;3.67;;;;;;;27.69;100.00;101482.31;5284302;28;20034;-72
2022/09/06 10:26:05;;;;;;;6.28;3.58;;;;;;;27.67;100.00;101484.53;5286181;27;20027;-72
2022/09/06 10:28:40;;;;;;;8.23;2.80;;;;;;;27.18;100.00;101477.25;5285843;28;20114;-73
2022/09/06 10:31:29;;;;;;;10.00;3.10;;;;;;;26.97;100.00;101483.63;5281187;28;20071;-72
2022/09/06 10:34:02;;;;;;;7.68;3.70;;;;;;;26.98;100.00;101491.63;5257891;28;20024;-72
2022/09/06 10:36:35;;;;;;;8.80;2.92;;;;;;;27.27;100.00;101483.13;5285903;28;20546;-73
2022/09/06 10:39:22;;;;;;;6.90;2.50;;;;;;;27.59;100.00;101486.66;5286165;28;20027;-73
2022/09/06 10:42:09;;;;;;;5.60;2.47;;;;;;;27.68;100.00;101488.94;5274594;28;20114;-73
2022/09/06 10:44:59;;;;;;;5.25;2.33;;;;;;;27.65;100.00;101489.47;5285424;28;20034;-73
2022/09/06 10:48:01;;;;;;;6.20;2.75;;;;;;;27.72;96.13;101488.19;5283376;28;20031;-73
2022/09/06 10:50:47;;;;;;;4.68;2.35;;;;;;;27.44;100.00;101485.72;5278946;28;20028;-73
2022/09/06 10:53:42;;;;;;;4.05;2.08;;;;;;;27.70;100.00;101486.72;5285522;28;20027;-73
2022/09/06 10:56:48;;;;;;;6.13;2.55;;;;;;;27.97;100.00;101487.50;5285242;28;20021;-73
2022/09/06 10:59:26;;;;;;;3.83;2.08;;;;;;;27.95;97.29;101475.91;5285053;28;20038;-73
2022/09/06 11:02:14;;;;;;;7.50;2.38;;;;;;;27.97;93.73;101478.41;5284789;28;20027;-73
2022/09/06 11:04:47;;;;;;;5.93;2.58;;;;;;;28.02;92.63;101465.47;5274440;28;20115;-73
2022/09/06 11:07:27;;;;;;;5.75;2.63;;;;;;;27.90;94.66;101462.09;5285207;28;20034;-73
2022/09/06 11:10:06;;;;;;;3.63;2.40;;;;;;;27.86;97.54;101463.72;5285235;28;20084;-73
2022/09/06 11:13:00;;;;;;;5.20;2.28;;;;;;;28.17;95.22;101473.00;5285232;28;20027;-73
2022/09/06 11:15:40;;;;;;;9.32;2.47;;;;;;;28.34;86.71;101483.84;5284407;28;20046;-73
2022/09/06 11:18:26;;;;;;;11.48;2.40;;;;;;;28.01;86.69;101472.06;5284892;28;20019;-73
2022/09/06 11:21:19;;;;;;;3.83;2.05;;;;;;;28.00;89.18;101478.69;5285560;28;20114;-73
2022/09/06 11:23:59;;;;;;;3.97;1.98;;;;;;;28.07;93.72;101476.53;5285073;28;20392;-73
2022/09/06 11:26:59;;;;;;;4.28;2.03;;;;;;;28.13;91.83;101469.09;5285628;28;20106;-73
2022/09/06 11:29:32;;;;;;;6.72;2.20;;;;;;;28.33;88.70;101471.97;5267198;28;20427;-73
2022/09/06 11:32:34;;;;;;;5.13;2.03;;;;;;;28.51;91.42;101470.66;5285154;28;20031;-74
2022/09/06 11:35:08;;;;;;;4.85;2.53;;;;;;;28.33;90.90;101477.50;5285240;28;20027;-73
2022/09/06 11:37:43;;;;;;;4.47;1.85;;;;;;;28.63;86.63;101471.25;5272852;28;20055;-74
2022/09/06 11:40:49;;;;;;;3.42;1.95;;;;;;;28.34;81.62;101475.56;5285631;28;20107;-74
2022/09/06 11:43:54;;;;;;;2.47;1.48;;;;;;;28.53;82.08;101471.22;5285580;28;20111;-73
2022/09/06 11:46:34;;;;;;;4.63;1.83;;;;;;;28.71;81.75;101472.63;5272677;28;20428;-73
2022/09/06 11:49:08;;;;;;;4.18;1.88;;;;;;;28.65;81.03;101476.50;5289908;28;20116;-74
2022/09/06 11:51:41;;;;;;;4.55;1.80;;;;;;;28.83;81.88;101464.13;5289357;28;20032;-74